PRXXI SBRP-SBJV
Flight info
| Callsign | PRXXI |
|---|---|
| Flight time | 0h 58m |
| Altitude | 43000 |
| Route | VUPOG UZ5 PALCA/N0481F450 UZ87 OBLUG UZ42 ALBOK/N0487F430 UZ85 RAXIT |
| Aircraft | C750/M-SBDE3FGHRWXY/S |
Departure
| Time | 2026-04-19 23:54 |
|---|---|
| Airport | Leite Lopes Airport (SBRP) |
Arrival
| Time | 2026-04-20 00:52 |
|---|---|
| Airport | Lauro Carneiro de Loyola Airport (SBJV) |
| Time | Latitude | Longitude | Altitude | Speed | Heading |
|---|---|---|---|---|---|
| 2026-04-19 23:45 | -21.13660 | -47.77645 | 1823 ft | 0 kts | 165° |
| 2026-04-19 23:49 | -21.13669 | -47.77644 | 1823 ft | 4 kts | 180° |
| 2026-04-19 23:50 | -21.13702 | -47.77620 | 1823 ft | 9 kts | 106° |
| 2026-04-19 23:50 | -21.13689 | -47.77564 | 1823 ft | 13 kts | 74° |
| 2026-04-19 23:51 | -21.13635 | -47.77506 | 1823 ft | 11 kts | 331° |
| 2026-04-19 23:51 | -21.13568 | -47.77534 | 1823 ft | 13 kts | 340° |
| 2026-04-19 23:51 | -21.13461 | -47.77568 | 1823 ft | 19 kts | 342° |
| 2026-04-19 23:52 | -21.13311 | -47.77619 | 1823 ft | 26 kts | 343° |
| 2026-04-19 23:52 | -21.13119 | -47.77677 | 1823 ft | 28 kts | 344° |
| 2026-04-19 23:52 | -21.12908 | -47.77745 | 1823 ft | 35 kts | 343° |
| 2026-04-19 23:52 | -21.12691 | -47.77813 | 1823 ft | 21 kts | 344° |
| 2026-04-19 23:53 | -21.12576 | -47.77768 | 1823 ft | 20 kts | 47° |
| 2026-04-19 23:53 | -21.12619 | -47.77662 | 1824 ft | 28 kts | 163° |
| 2026-04-19 23:53 | -21.13082 | -47.77515 | 1824 ft | 117 kts | 164° |
| 2026-04-19 23:53 | -21.14055 | -47.77203 | 1933 ft | 159 kts | 164° |
| 2026-04-19 23:54 | -21.15128 | -47.76710 | 2225 ft | 185 kts | 144° |
| 2026-04-19 23:54 | -21.16306 | -47.75955 | 2304 ft | 218 kts | 167° |
| 2026-04-19 23:54 | -21.17848 | -47.76220 | 2797 ft | 233 kts | 210° |
| 2026-04-19 23:54 | -21.18900 | -47.77425 | 4040 ft | 219 kts | 236° |
| 2026-04-19 23:55 | -21.19236 | -47.79045 | 4753 ft | 232 kts | 272° |
| 2026-04-19 23:55 | -21.18727 | -47.80684 | 5595 ft | 234 kts | 295° |
| 2026-04-19 23:55 | -21.17997 | -47.82242 | 6371 ft | 236 kts | 288° |
| 2026-04-19 23:55 | -21.18028 | -47.83985 | 6900 ft | 245 kts | 249° |
| 2026-04-19 23:56 | -21.19117 | -47.85469 | 7121 ft | 271 kts | 214° |
| 2026-04-19 23:56 | -21.20867 | -47.86281 | 7825 ft | 275 kts | 197° |
| 2026-04-19 23:56 | -21.22775 | -47.86512 | 8725 ft | 278 kts | 182° |
| 2026-04-19 23:56 | -21.24725 | -47.86541 | 9575 ft | 283 kts | 181° |
| 2026-04-19 23:57 | -21.26711 | -47.86627 | 10282 ft | 291 kts | 184° |
| 2026-04-19 23:57 | -21.28810 | -47.86776 | 10482 ft | 315 kts | 184° |
| 2026-04-19 23:57 | -21.31094 | -47.86926 | 10534 ft | 342 kts | 184° |
| 2026-04-19 23:57 | -21.33522 | -47.87056 | 10997 ft | 351 kts | 183° |
| 2026-04-19 23:58 | -21.35958 | -47.87187 | 11767 ft | 351 kts | 183° |
| 2026-04-19 23:58 | -21.38408 | -47.87335 | 12412 ft | 355 kts | 183° |
| 2026-04-19 23:58 | -21.40882 | -47.87485 | 13084 ft | 357 kts | 183° |
| 2026-04-19 23:58 | -21.43374 | -47.87627 | 13736 ft | 360 kts | 183° |
| 2026-04-19 23:59 | -21.45889 | -47.87771 | 14314 ft | 364 kts | 183° |
| 2026-04-19 23:59 | -21.48422 | -47.87920 | 14901 ft | 366 kts | 183° |
| 2026-04-19 23:59 | -21.50978 | -47.88070 | 15468 ft | 369 kts | 183° |
| 2026-04-19 23:59 | -21.53549 | -47.88220 | 16063 ft | 372 kts | 183° |
| 2026-04-20 00:00 | -21.56142 | -47.88370 | 16673 ft | 374 kts | 183° |
| 2026-04-20 00:00 | -21.58755 | -47.88523 | 17286 ft | 378 kts | 183° |
| 2026-04-20 00:00 | -21.61390 | -47.88677 | 17913 ft | 381 kts | 183° |
| 2026-04-20 00:00 | -21.64009 | -47.88830 | 18500 ft | 384 kts | 183° |
| 2026-04-20 00:01 | -21.66723 | -47.88988 | 19081 ft | 387 kts | 183° |
| 2026-04-20 00:01 | -21.69411 | -47.89146 | 19833 ft | 380 kts | 184° |
| 2026-04-20 00:01 | -21.74506 | -47.89443 | 21926 ft | 351 kts | 184° |
| 2026-04-20 00:02 | -21.76873 | -47.89580 | 23103 ft | 337 kts | 185° |
| 2026-04-20 00:02 | -21.79233 | -47.89720 | 23811 ft | 336 kts | 185° |
| 2026-04-20 00:02 | -21.81507 | -47.89852 | 24818 ft | 325 kts | 186° |
| 2026-04-20 00:02 | -21.83751 | -47.89985 | 25322 ft | 331 kts | 186° |
| 2026-04-20 00:03 | -21.86089 | -47.90123 | 25938 ft | 333 kts | 186° |
| 2026-04-20 00:03 | -21.88380 | -47.90257 | 26555 ft | 335 kts | 186° |
| 2026-04-20 00:03 | -21.90717 | -47.90393 | 27147 ft | 338 kts | 187° |
| 2026-04-20 00:03 | -21.93076 | -47.90532 | 27766 ft | 340 kts | 187° |
| 2026-04-20 00:04 | -21.95368 | -47.90662 | 28949 ft | 322 kts | 187° |
| 2026-04-20 00:04 | -21.97609 | -47.90794 | 29623 ft | 320 kts | 188° |
| 2026-04-20 00:04 | -21.99733 | -47.90916 | 30639 ft | 292 kts | 188° |
| 2026-04-20 00:04 | -22.01750 | -47.91035 | 31017 ft | 295 kts | 189° |
| 2026-04-20 00:05 | -22.03870 | -47.91174 | 31007 ft | 315 kts | 189° |
| 2026-04-20 00:05 | -22.06125 | -47.91310 | 31015 ft | 334 kts | 188° |
| 2026-04-20 00:05 | -22.08509 | -47.91444 | 31044 ft | 352 kts | 188° |
| 2026-04-20 00:05 | -22.11019 | -47.91588 | 31043 ft | 370 kts | 188° |
| 2026-04-20 00:06 | -22.13646 | -47.91745 | 31046 ft | 387 kts | 188° |
| 2026-04-20 00:06 | -22.16396 | -47.91908 | 31045 ft | 403 kts | 187° |
| 2026-04-20 00:06 | -22.19247 | -47.92074 | 31044 ft | 418 kts | 187° |
| 2026-04-20 00:06 | -22.22201 | -47.92246 | 31040 ft | 432 kts | 187° |
| 2026-04-20 00:07 | -22.25253 | -47.92426 | 31040 ft | 446 kts | 187° |
| 2026-04-20 00:07 | -22.28392 | -47.92612 | 31032 ft | 458 kts | 187° |
| 2026-04-20 00:07 | -22.31617 | -47.92802 | 31029 ft | 470 kts | 187° |
| 2026-04-20 00:07 | -22.34924 | -47.92996 | 31031 ft | 481 kts | 187° |
| 2026-04-20 00:08 | -22.38297 | -47.93195 | 31029 ft | 491 kts | 186° |
| 2026-04-20 00:08 | -22.45216 | -47.93602 | 31033 ft | 503 kts | 186° |
| 2026-04-20 00:09 | -22.52244 | -47.94017 | 31018 ft | 507 kts | 186° |
| 2026-04-20 00:09 | -22.59290 | -47.94433 | 31026 ft | 507 kts | 186° |
| 2026-04-20 00:10 | -22.66343 | -47.94852 | 31025 ft | 509 kts | 186° |
| 2026-04-20 00:10 | -22.73425 | -47.94876 | 30946 ft | 516 kts | 173° |
| 2026-04-20 00:10 | -22.76811 | -47.93533 | 30928 ft | 526 kts | 155° |
| 2026-04-20 00:11 | -22.79679 | -47.91111 | 30935 ft | 537 kts | 137° |
| 2026-04-20 00:11 | -22.81842 | -47.87722 | 30971 ft | 546 kts | 120° |
| 2026-04-20 00:11 | -22.83261 | -47.83886 | 31038 ft | 549 kts | 111° |
| 2026-04-20 00:12 | -22.85297 | -47.75931 | 31039 ft | 553 kts | 107° |
| 2026-04-20 00:12 | -22.87642 | -47.68003 | 31012 ft | 551 kts | 115° |
| 2026-04-20 00:13 | -22.90999 | -47.60574 | 31020 ft | 548 kts | 121° |
| 2026-04-20 00:13 | -22.94246 | -47.53079 | 31022 ft | 550 kts | 115° |
| 2026-04-20 00:14 | -22.97196 | -47.45424 | 31039 ft | 549 kts | 118° |
| 2026-04-20 00:14 | -23.00375 | -47.38069 | 31056 ft | 549 kts | 116° |
| 2026-04-20 00:15 | -23.03372 | -47.30435 | 31073 ft | 549 kts | 117° |
| 2026-04-20 00:15 | -23.06545 | -47.22899 | 31077 ft | 549 kts | 117° |
| 2026-04-20 00:16 | -23.09583 | -47.15293 | 31069 ft | 549 kts | 116° |
| 2026-04-20 00:16 | -23.12706 | -47.07732 | 31066 ft | 549 kts | 117° |
| 2026-04-20 00:17 | -23.15775 | -47.00120 | 31070 ft | 549 kts | 116° |
| 2026-04-20 00:17 | -23.19839 | -46.93297 | 30992 ft | 534 kts | 142° |
| 2026-04-20 00:17 | -23.22952 | -46.91191 | 31011 ft | 524 kts | 160° |
| 2026-04-20 00:18 | -23.26442 | -46.90256 | 31041 ft | 514 kts | 178° |
| 2026-04-20 00:18 | -23.29913 | -46.90538 | 31054 ft | 506 kts | 195° |
| 2026-04-20 00:18 | -23.33131 | -46.92003 | 31061 ft | 501 kts | 213° |
| 2026-04-20 00:18 | -23.35757 | -46.94462 | 31081 ft | 498 kts | 227° |
| 2026-04-20 00:19 | -23.37943 | -46.97388 | 31111 ft | 498 kts | 233° |
| 2026-04-20 00:19 | -23.42087 | -47.03432 | 31084 ft | 499 kts | 232° |
| 2026-04-20 00:20 | -23.46629 | -47.09136 | 31077 ft | 499 kts | 226° |
| 2026-04-20 00:20 | -23.51812 | -47.14179 | 31067 ft | 501 kts | 219° |
| 2026-04-20 00:21 | -23.57827 | -47.18008 | 31074 ft | 503 kts | 207° |
| 2026-04-20 00:21 | -23.63177 | -47.20538 | 31089 ft | 505 kts | 205° |
| 2026-04-20 00:22 | -23.70458 | -47.24672 | 31093 ft | 505 kts | 211° |
| 2026-04-20 00:22 | -23.75650 | -47.27614 | 31097 ft | 507 kts | 207° |
| 2026-04-20 00:23 | -23.81958 | -47.31060 | 31093 ft | 507 kts | 210° |
| 2026-04-20 00:23 | -23.88203 | -47.34659 | 31086 ft | 508 kts | 208° |
| 2026-04-20 00:24 | -23.94513 | -47.38142 | 31082 ft | 508 kts | 209° |
| 2026-04-20 00:24 | -24.00773 | -47.41723 | 31088 ft | 507 kts | 208° |
| 2026-04-20 00:25 | -24.07060 | -47.45232 | 31085 ft | 507 kts | 208° |
| 2026-04-20 00:25 | -24.13182 | -47.49042 | 31070 ft | 505 kts | 214° |
| 2026-04-20 00:26 | -24.19121 | -47.53178 | 31066 ft | 506 kts | 213° |
| 2026-04-20 00:26 | -24.25073 | -47.57301 | 31072 ft | 506 kts | 214° |
| 2026-04-20 00:27 | -24.31015 | -47.61453 | 31067 ft | 507 kts | 213° |
| 2026-04-20 00:27 | -24.36978 | -47.65595 | 31066 ft | 507 kts | 213° |
| 2026-04-20 00:28 | -24.42887 | -47.69816 | 31048 ft | 507 kts | 217° |
| 2026-04-20 00:28 | -24.45676 | -47.72136 | 31050 ft | 496 kts | 218° |
| 2026-04-20 00:28 | -24.48429 | -47.74408 | 31049 ft | 496 kts | 217° |
| 2026-04-20 00:29 | -24.53940 | -47.78923 | 31054 ft | 499 kts | 218° |
| 2026-04-20 00:29 | -24.59505 | -47.83535 | 31041 ft | 500 kts | 218° |
| 2026-04-20 00:29 | -24.62210 | -47.85762 | 30430 ft | 475 kts | 218° |
| 2026-04-20 00:30 | -24.64792 | -47.87888 | 29765 ft | 454 kts | 218° |
| 2026-04-20 00:30 | -24.67268 | -47.89940 | 29184 ft | 439 kts | 218° |
| 2026-04-20 00:30 | -24.69686 | -47.91946 | 28618 ft | 434 kts | 218° |
| 2026-04-20 00:30 | -24.72102 | -47.93945 | 28061 ft | 433 kts | 217° |
| 2026-04-20 00:31 | -24.74501 | -47.95928 | 27483 ft | 431 kts | 217° |
| 2026-04-20 00:31 | -24.76891 | -47.97908 | 26920 ft | 428 kts | 217° |
| 2026-04-20 00:31 | -24.79251 | -47.99867 | 26366 ft | 423 kts | 217° |
| 2026-04-20 00:31 | -24.81595 | -48.01811 | 25803 ft | 420 kts | 217° |
| 2026-04-20 00:32 | -24.83918 | -48.03738 | 25254 ft | 416 kts | 217° |
| 2026-04-20 00:32 | -24.86225 | -48.05652 | 24712 ft | 413 kts | 217° |
| 2026-04-20 00:32 | -24.88504 | -48.07546 | 24164 ft | 409 kts | 217° |
| 2026-04-20 00:32 | -24.90770 | -48.09429 | 23622 ft | 406 kts | 217° |
| 2026-04-20 00:33 | -24.93015 | -48.11295 | 23055 ft | 402 kts | 216° |
| 2026-04-20 00:33 | -24.95244 | -48.13149 | 22524 ft | 401 kts | 216° |
| 2026-04-20 00:33 | -24.97453 | -48.14987 | 22000 ft | 398 kts | 216° |
| 2026-04-20 00:33 | -24.99663 | -48.16827 | 21469 ft | 396 kts | 216° |
| 2026-04-20 00:34 | -25.01852 | -48.18650 | 20954 ft | 393 kts | 216° |
| 2026-04-20 00:34 | -25.04033 | -48.20467 | 20437 ft | 391 kts | 216° |
| 2026-04-20 00:34 | -25.06194 | -48.22269 | 19925 ft | 389 kts | 216° |
| 2026-04-20 00:34 | -25.08347 | -48.24064 | 19412 ft | 386 kts | 216° |
| 2026-04-20 00:35 | -25.10457 | -48.25825 | 18908 ft | 385 kts | 216° |
| 2026-04-20 00:35 | -25.12612 | -48.27624 | 18398 ft | 382 kts | 216° |
| 2026-04-20 00:35 | -25.14725 | -48.29389 | 17862 ft | 379 kts | 216° |
| 2026-04-20 00:35 | -25.16817 | -48.31137 | 17363 ft | 376 kts | 216° |
| 2026-04-20 00:36 | -25.18872 | -48.32854 | 16955 ft | 372 kts | 216° |
| 2026-04-20 00:36 | -25.20936 | -48.34581 | 16719 ft | 373 kts | 216° |
| 2026-04-20 00:36 | -25.23004 | -48.36309 | 16406 ft | 371 kts | 216° |
| 2026-04-20 00:36 | -25.25224 | -48.37727 | 16041 ft | 368 kts | 202° |
| 2026-04-20 00:37 | -25.27589 | -48.38786 | 15770 ft | 367 kts | 203° |
| 2026-04-20 00:37 | -25.29866 | -48.40056 | 15505 ft | 366 kts | 207° |
| 2026-04-20 00:37 | -25.32181 | -48.41370 | 15309 ft | 385 kts | 205° |
| 2026-04-20 00:37 | -25.34669 | -48.42617 | 15374 ft | 400 kts | 203° |
| 2026-04-20 00:38 | -25.37239 | -48.43868 | 15288 ft | 409 kts | 203° |
| 2026-04-20 00:38 | -25.39820 | -48.45203 | 14775 ft | 408 kts | 205° |
| 2026-04-20 00:38 | -25.42371 | -48.46564 | 14231 ft | 406 kts | 205° |
| 2026-04-20 00:38 | -25.44929 | -48.47885 | 13673 ft | 404 kts | 204° |
| 2026-04-20 00:39 | -25.47473 | -48.49170 | 13133 ft | 401 kts | 204° |
| 2026-04-20 00:39 | -25.49992 | -48.50466 | 12601 ft | 398 kts | 204° |
| 2026-04-20 00:39 | -25.52486 | -48.51768 | 12078 ft | 395 kts | 204° |
| 2026-04-20 00:39 | -25.54970 | -48.53054 | 11559 ft | 393 kts | 204° |
| 2026-04-20 00:40 | -25.57441 | -48.54322 | 11045 ft | 390 kts | 204° |
| 2026-04-20 00:40 | -25.59894 | -48.55588 | 10536 ft | 388 kts | 204° |
| 2026-04-20 00:40 | -25.62332 | -48.56852 | 10024 ft | 385 kts | 204° |
| 2026-04-20 00:40 | -25.64753 | -48.58106 | 9408 ft | 384 kts | 204° |
| 2026-04-20 00:41 | -25.67150 | -48.59344 | 8962 ft | 380 kts | 204° |
| 2026-04-20 00:41 | -25.69543 | -48.60582 | 8479 ft | 379 kts | 204° |
| 2026-04-20 00:41 | -25.71927 | -48.61818 | 7970 ft | 375 kts | 204° |
| 2026-04-20 00:41 | -25.74138 | -48.62965 | 7448 ft | 308 kts | 205° |
| 2026-04-20 00:42 | -25.75890 | -48.63874 | 7065 ft | 260 kts | 205° |
| 2026-04-20 00:42 | -25.77497 | -48.64705 | 6704 ft | 247 kts | 205° |
| 2026-04-20 00:42 | -25.79051 | -48.65510 | 6397 ft | 251 kts | 205° |
| 2026-04-20 00:42 | -25.80654 | -48.66344 | 5934 ft | 251 kts | 205° |
| 2026-04-20 00:43 | -25.82113 | -48.67266 | 5937 ft | 241 kts | 212° |
| 2026-04-20 00:43 | -25.83547 | -48.68207 | 6011 ft | 239 kts | 210° |
| 2026-04-20 00:43 | -25.85013 | -48.69145 | 5713 ft | 247 kts | 210° |
| 2026-04-20 00:43 | -25.86497 | -48.70117 | 5236 ft | 249 kts | 210° |
| 2026-04-20 00:44 | -25.87979 | -48.71099 | 5000 ft | 246 kts | 210° |
| 2026-04-20 00:44 | -25.89452 | -48.72069 | 5012 ft | 247 kts | 210° |
| 2026-04-20 00:44 | -25.90954 | -48.73056 | 5012 ft | 248 kts | 210° |
| 2026-04-20 00:44 | -25.92421 | -48.74022 | 4988 ft | 250 kts | 210° |
| 2026-04-20 00:45 | -25.93920 | -48.75010 | 4837 ft | 251 kts | 210° |
| 2026-04-20 00:45 | -25.95424 | -48.76001 | 4628 ft | 252 kts | 210° |
| 2026-04-20 00:45 | -25.96928 | -48.76993 | 4410 ft | 252 kts | 210° |
| 2026-04-20 00:45 | -25.98432 | -48.77984 | 4185 ft | 251 kts | 210° |
| 2026-04-20 00:46 | -25.99947 | -48.78983 | 3961 ft | 260 kts | 210° |
| 2026-04-20 00:46 | -26.01478 | -48.79993 | 3721 ft | 250 kts | 210° |
| 2026-04-20 00:46 | -26.02936 | -48.80956 | 3498 ft | 235 kts | 210° |
| 2026-04-20 00:46 | -26.04222 | -48.81806 | 3263 ft | 197 kts | 210° |
| 2026-04-20 00:47 | -26.05308 | -48.82524 | 3108 ft | 172 kts | 210° |
| 2026-04-20 00:47 | -26.06324 | -48.83193 | 2979 ft | 167 kts | 210° |
| 2026-04-20 00:47 | -26.07331 | -48.83858 | 2843 ft | 168 kts | 210° |
| 2026-04-20 00:47 | -26.08339 | -48.84523 | 2709 ft | 169 kts | 210° |
| 2026-04-20 00:48 | -26.09349 | -48.85191 | 2567 ft | 168 kts | 210° |
| 2026-04-20 00:48 | -26.10319 | -48.85833 | 2416 ft | 152 kts | 210° |
| 2026-04-20 00:48 | -26.11190 | -48.86391 | 2270 ft | 140 kts | 206° |
| 2026-04-20 00:48 | -26.12124 | -48.86626 | 2133 ft | 137 kts | 180° |
| 2026-04-20 00:49 | -26.13058 | -48.86474 | 2064 ft | 134 kts | 163° |
| 2026-04-20 00:49 | -26.13981 | -48.86233 | 2060 ft | 137 kts | 166° |
| 2026-04-20 00:49 | -26.14917 | -48.86001 | 2032 ft | 140 kts | 165° |
| 2026-04-20 00:49 | -26.15883 | -48.85756 | 1790 ft | 143 kts | 165° |
| 2026-04-20 00:50 | -26.16825 | -48.85446 | 1515 ft | 140 kts | 158° |
| 2026-04-20 00:50 | -26.17682 | -48.84968 | 1249 ft | 133 kts | 148° |
| 2026-04-20 00:50 | -26.18464 | -48.84419 | 1025 ft | 135 kts | 145° |
| 2026-04-20 00:50 | -26.19216 | -48.83818 | 809 ft | 132 kts | 141° |
| 2026-04-20 00:51 | -26.19905 | -48.83149 | 613 ft | 129 kts | 136° |
| 2026-04-20 00:51 | -26.20496 | -48.82405 | 454 ft | 129 kts | 128° |
| 2026-04-20 00:51 | -26.21063 | -48.81629 | 296 ft | 127 kts | 129° |
| 2026-04-20 00:51 | -26.21626 | -48.80870 | 170 ft | 127 kts | 128° |
| 2026-04-20 00:52 | -26.22176 | -48.80106 | 31 ft | 120 kts | 127° |
| 2026-04-20 00:52 | -26.22624 | -48.79487 | 20 ft | 68 kts | 131° |
| 2026-04-20 00:52 | -26.22733 | -48.79320 | 23 ft | 9 kts | 162° |
| 2026-04-20 00:52 | -26.22738 | -48.79328 | 21 ft | 2 kts | 292° |
| 2026-04-20 00:53 | -26.22694 | -48.79396 | 21 ft | 15 kts | 307° |
| 2026-04-20 00:53 | -26.22625 | -48.79490 | 20 ft | 19 kts | 310° |
| 2026-04-20 00:53 | -26.22513 | -48.79644 | 21 ft | 29 kts | 310° |
| 2026-04-20 00:53 | -26.22391 | -48.79809 | 20 ft | 27 kts | 307° |
| 2026-04-20 00:54 | -26.22290 | -48.79954 | 22 ft | 12 kts | 299° |
| 2026-04-20 00:54 | -26.22324 | -48.80016 | 20 ft | 10 kts | 216° |
| 2026-04-20 00:54 | -26.22387 | -48.80027 | 20 ft | 8 kts | 144° |
| 2026-04-20 00:54 | -26.22394 | -48.80021 | 21 ft | 0 kts | 141° |
| 2026-04-20 00:55 | -26.22396 | -48.80020 | 20 ft | 1 kts | 142° |
| 2026-04-20 00:55 | -26.22403 | -48.80018 | 19 ft | 2 kts | 177° |
| 2026-04-20 00:55 | -26.22418 | -48.80027 | 20 ft | 0 kts | 217° |